createdAt,value
2023-01-11T00:00:15.285Z,3.40
2023-01-11T00:03:04.866Z,3.30
2023-01-11T00:05:37.550Z,3.30
2023-01-11T00:08:05.971Z,3.30
2023-01-11T00:10:34.598Z,3.30
2023-01-11T00:13:02.732Z,3.30
2023-01-11T00:15:31.329Z,3.20
2023-01-11T00:17:59.271Z,3.10
2023-01-11T00:20:27.193Z,3.10
2023-01-11T00:22:54.751Z,3.10
2023-01-11T00:25:22.833Z,3.10
2023-01-11T00:27:50.514Z,3.00
2023-01-11T00:30:18.962Z,3.00
2023-01-11T00:32:46.975Z,3.00
2023-01-11T00:35:15.469Z,3.00
2023-01-11T00:37:43.110Z,3.00
2023-01-11T00:40:26.616Z,3.00
2023-01-11T00:43:13.602Z,3.00
2023-01-11T00:46:00.332Z,3.00
2023-01-11T00:48:28.296Z,3.00
2023-01-11T00:50:57.613Z,3.10
2023-01-11T00:53:25.624Z,3.10
2023-01-11T00:55:53.282Z,3.10
2023-01-11T00:58:21.318Z,3.10
2023-01-11T01:00:48.961Z,3.20
2023-01-11T01:03:17.057Z,3.30
2023-01-11T01:05:44.783Z,3.20
2023-01-11T01:08:12.823Z,3.30
2023-01-11T01:10:41.235Z,3.30
2023-01-11T01:13:30.285Z,3.30
2023-01-11T01:15:59.416Z,3.30
2023-01-11T01:18:27.448Z,3.20
2023-01-11T01:20:55.147Z,3.20
2023-01-11T01:23:23.024Z,3.20
2023-01-11T01:25:50.766Z,3.10
2023-01-11T01:28:22.383Z,3.10
2023-01-11T01:30:51.698Z,3.10
2023-01-11T01:33:19.928Z,3.00
2023-01-11T01:35:47.515Z,3.00
2023-01-11T01:38:16.079Z,2.90
2023-01-11T01:40:48.787Z,2.90
2023-01-11T01:43:18.062Z,2.80
2023-01-11T01:45:45.783Z,2.80
2023-01-11T01:48:19.189Z,2.70
2023-01-11T01:50:52.369Z,2.60
2023-01-11T01:53:36.120Z,2.50
2023-01-11T01:56:25.591Z,2.50
2023-01-11T01:59:00.640Z,2.50
2023-01-11T02:01:47.467Z,2.40
2023-01-11T02:04:26.446Z,2.40
2023-01-11T02:06:59.274Z,2.30
2023-01-11T02:09:43.691Z,2.30
2023-01-11T02:12:11.455Z,2.30
2023-01-11T02:14:41.710Z,2.30
2023-01-11T02:17:10.291Z,2.30
2023-01-11T02:20:03.053Z,2.30
2023-01-11T02:22:49.491Z,2.20
2023-01-11T02:25:48.952Z,2.10
2023-01-11T02:28:22.431Z,2.00
2023-01-11T02:31:30.102Z,2.00
2023-01-11T02:34:20.232Z,2.00
2023-01-11T02:37:11.632Z,1.90
2023-01-11T02:39:59.161Z,1.90
2023-01-11T02:43:17.784Z,1.90
2023-01-11T02:45:58.559Z,1.90
2023-01-11T02:48:35.295Z,1.90
2023-01-11T02:55:41.814Z,1.80
2023-01-11T02:58:12.644Z,1.70
2023-01-11T03:00:42.011Z,1.70
2023-01-11T03:03:22.258Z,1.70
2023-01-11T03:05:59.386Z,1.70
2023-01-11T03:08:51.314Z,1.70
2023-01-11T03:11:59.591Z,1.70
2023-01-11T03:14:30.191Z,1.60
2023-01-11T03:17:40.295Z,1.60
2023-01-11T03:20:15.180Z,1.60
2023-01-11T03:23:15.051Z,1.60
2023-01-11T03:26:06.809Z,1.60
2023-01-11T03:28:39.025Z,1.70
2023-01-11T03:31:15.561Z,1.70
2023-01-11T03:34:24.757Z,1.80
2023-01-11T03:37:05.080Z,1.80
2023-01-11T03:39:48.287Z,1.90
2023-01-11T03:42:21.355Z,1.90
2023-01-11T03:44:55.697Z,1.90
2023-01-11T03:47:27.455Z,1.90
2023-01-11T03:50:05.277Z,2.00
2023-01-11T03:52:38.957Z,2.00
2023-01-11T03:55:10.261Z,2.00
2023-01-11T03:57:51.532Z,2.00
2023-01-11T04:04:51.492Z,1.90
2023-01-11T04:07:19.179Z,1.90
2023-01-11T04:09:47.194Z,1.80
2023-01-11T04:12:14.947Z,1.80
2023-01-11T04:14:43.035Z,1.80
2023-01-11T04:17:10.717Z,1.80
2023-01-11T04:19:38.718Z,1.70
2023-01-11T04:22:06.314Z,1.80
2023-01-11T04:24:34.518Z,1.90
2023-01-11T04:27:02.210Z,2.00
2023-01-11T04:29:30.234Z,2.10
2023-01-11T04:31:57.848Z,2.20
2023-01-11T04:34:25.825Z,2.30
2023-01-11T04:36:54.605Z,2.30
2023-01-11T04:39:23.660Z,2.40
2023-01-11T04:42:10.015Z,2.40
2023-01-11T04:44:38.035Z,2.40
2023-01-11T04:47:05.909Z,2.50
2023-01-11T04:49:33.823Z,2.50
2023-01-11T04:52:01.427Z,2.50
2023-01-11T04:54:29.375Z,2.50
2023-01-11T04:56:58.968Z,2.40
2023-01-11T04:59:27.295Z,2.40
2023-01-11T05:01:54.857Z,2.40
2023-01-11T05:04:23.394Z,2.40
2023-01-11T05:06:51.444Z,2.40
2023-01-11T05:09:19.920Z,2.40
2023-01-11T05:11:48.116Z,2.40
2023-01-11T05:14:17.660Z,2.40
2023-01-11T05:16:45.505Z,2.40
2023-01-11T05:19:13.626Z,2.40
2023-01-11T05:21:42.774Z,2.50
2023-01-11T05:24:15.805Z,2.50
2023-01-11T05:26:45.276Z,2.50
2023-01-11T05:29:16.567Z,2.60
2023-01-11T05:31:44.771Z,2.70
2023-01-11T05:34:17.369Z,2.70
2023-01-11T05:36:45.907Z,2.80
2023-01-11T05:39:15.267Z,2.80
2023-01-11T05:41:43.180Z,2.90
2023-01-11T05:44:31.627Z,2.90
2023-01-11T05:46:59.941Z,3.00
2023-01-11T05:49:28.134Z,3.10
2023-01-11T05:51:56.009Z,3.10
2023-01-11T05:54:24.065Z,3.30
2023-01-11T05:56:51.811Z,3.30
2023-01-11T05:59:19.877Z,3.50
2023-01-11T06:01:47.794Z,3.50
2023-01-11T06:04:16.009Z,3.60
2023-01-11T06:06:43.912Z,3.70
2023-01-11T06:09:12.487Z,3.90
2023-01-11T06:11:40.195Z,4.00
2023-01-11T06:14:08.616Z,4.10
2023-01-11T06:16:36.773Z,4.20
2023-01-11T06:23:37.098Z,4.40
2023-01-11T06:26:10.726Z,4.60
2023-01-11T06:28:39.392Z,4.60
2023-01-11T06:31:07.770Z,4.70
2023-01-11T06:33:36.935Z,4.70
2023-01-11T06:36:07.772Z,4.80
2023-01-11T06:38:36.924Z,4.90
2023-01-11T06:41:07.499Z,4.90
2023-01-11T06:43:37.542Z,5.00
2023-01-11T06:46:05.760Z,5.00
2023-01-11T06:48:33.996Z,5.00
2023-01-11T06:51:01.729Z,5.10
2023-01-11T06:53:29.722Z,5.10
2023-01-11T06:55:58.580Z,5.10
2023-01-11T06:58:27.429Z,5.20
2023-01-11T07:00:57.402Z,5.30
2023-01-11T07:03:26.506Z,5.30
2023-01-11T07:05:57.106Z,5.30
2023-01-11T07:08:26.355Z,5.30
2023-01-11T07:15:26.484Z,5.50
2023-01-11T07:17:59.129Z,5.50
2023-01-11T07:24:59.581Z,5.50
2023-01-11T07:27:27.601Z,5.60
2023-01-11T07:29:55.659Z,5.60
2023-01-11T07:32:23.435Z,5.60
2023-01-11T07:34:51.614Z,5.60
2023-01-11T07:37:28.487Z,5.70
2023-01-11T07:39:57.405Z,5.80
2023-01-11T07:42:43.989Z,5.80
2023-01-11T07:45:13.649Z,5.90
2023-01-11T07:47:41.424Z,6.00
2023-01-11T07:50:10.370Z,6.10
2023-01-11T07:52:38.026Z,6.10
2023-01-11T07:55:06.516Z,6.10
2023-01-11T07:57:35.452Z,6.20
2023-01-11T08:00:04.101Z,6.20
2023-01-11T08:02:40.314Z,6.20
2023-01-11T08:05:10.512Z,6.20
2023-01-11T08:07:38.272Z,6.30
2023-01-11T08:10:07.031Z,6.30
2023-01-11T08:12:53.038Z,6.30
2023-01-11T08:15:23.644Z,6.40
2023-01-11T08:17:51.537Z,6.50
2023-01-11T08:20:21.380Z,6.50
2023-01-11T08:22:49.105Z,6.60
2023-01-11T08:25:17.259Z,6.60
2023-01-11T08:27:45.149Z,6.60
2023-01-11T08:30:13.622Z,6.70
2023-01-11T08:32:41.522Z,6.70
2023-01-11T08:35:10.314Z,6.80
2023-01-11T08:37:38.070Z,6.90
2023-01-11T08:40:06.650Z,6.90
2023-01-11T08:42:34.503Z,6.90
2023-01-11T08:45:02.718Z,7.00
2023-01-11T08:47:30.442Z,7.00
2023-01-11T08:49:58.516Z,7.10
2023-01-11T08:52:27.536Z,7.20
2023-01-11T08:54:55.575Z,7.20
2023-01-11T08:57:24.111Z,7.20
2023-01-11T08:59:52.333Z,7.30
2023-01-11T09:02:20.092Z,7.40
2023-01-11T09:04:48.579Z,7.50
2023-01-11T09:07:16.426Z,7.50
2023-01-11T09:09:44.530Z,7.60
2023-01-11T09:12:12.372Z,7.70
2023-01-11T09:14:40.441Z,7.80
2023-01-11T09:17:08.868Z,8.00
2023-01-11T09:19:37.507Z,8.00
2023-01-11T09:22:05.231Z,8.00
2023-01-11T09:24:33.260Z,8.00
2023-01-11T09:27:05.069Z,8.10
2023-01-11T09:29:35.535Z,8.20
2023-01-11T09:32:05.158Z,8.40
2023-01-11T09:34:33.586Z,8.50
2023-01-11T09:37:04.228Z,8.60
2023-01-11T09:39:33.851Z,8.80
2023-01-11T09:42:12.809Z,9.00
2023-01-11T09:45:00.858Z,9.20
2023-01-11T09:48:08.917Z,9.10
2023-01-11T09:50:42.094Z,9.00
2023-01-11T09:53:28.326Z,8.90
2023-01-11T09:56:00.113Z,8.90
2023-01-11T09:58:55.190Z,9.00
2023-01-11T10:02:16.634Z,9.10
2023-01-11T10:05:06.489Z,9.00
2023-01-11T10:18:33.080Z,8.90
2023-01-11T10:18:37.346Z,8.80
2023-01-11T10:21:15.534Z,8.70
2023-01-11T10:24:01.498Z,8.60
2023-01-11T10:26:39.915Z,8.60
2023-01-11T10:29:58.641Z,8.50
2023-01-11T10:32:53.556Z,8.40
2023-01-11T10:35:58.326Z,8.40
2023-01-11T10:38:59.389Z,8.40
2023-01-11T10:41:39.010Z,8.30
2023-01-11T10:44:10.292Z,8.30
2023-01-11T10:46:44.817Z,8.40
2023-01-11T10:49:41.386Z,8.50
2023-01-11T10:52:20.226Z,8.60
2023-01-11T10:54:54.977Z,8.60
2023-01-11T10:58:09.860Z,8.60
2023-01-11T11:00:45.275Z,8.60
2023-01-11T11:03:27.785Z,8.70
2023-01-11T11:06:04.897Z,8.70
2023-01-11T11:08:55.157Z,8.60
2023-01-11T11:12:08.415Z,8.60
2023-01-11T11:14:50.034Z,8.60
2023-01-11T11:17:33.225Z,8.60
2023-01-11T11:24:44.252Z,8.60
2023-01-11T11:27:40.678Z,8.60
2023-01-11T11:30:14.235Z,8.60
2023-01-11T11:32:52.577Z,8.60
2023-01-11T11:35:31.921Z,8.60
2023-01-11T11:38:00.391Z,8.60
2023-01-11T11:40:38.941Z,8.70
2023-01-11T11:43:23.694Z,8.70
2023-01-11T11:46:03.710Z,8.70
2023-01-11T11:48:34.063Z,8.80
2023-01-11T11:51:05.407Z,8.80
2023-01-11T11:53:38.932Z,8.90
2023-01-11T11:56:15.133Z,8.90
2023-01-11T11:58:44.188Z,8.80
2023-01-11T12:06:03.625Z,8.90
2023-01-11T12:08:34.489Z,8.80
2023-01-11T12:11:06.746Z,8.90
2023-01-11T12:13:39.709Z,8.80
2023-01-11T12:16:23.231Z,8.90
2023-01-11T12:18:51.455Z,8.90
2023-01-11T12:21:29.672Z,9.00
2023-01-11T12:24:30.203Z,9.00
2023-01-11T12:27:03.569Z,9.00
2023-01-11T12:29:49.630Z,9.20
2023-01-11T12:32:52.436Z,9.20
2023-01-11T12:35:38.995Z,9.40
2023-01-11T12:38:22.262Z,9.40
2023-01-11T12:41:06.083Z,9.50
2023-01-11T12:43:44.769Z,9.50
2023-01-11T12:46:46.837Z,9.40
2023-01-11T12:49:20.551Z,9.40
2023-01-11T12:52:03.707Z,9.40
2023-01-11T12:55:01.911Z,9.40
2023-01-11T12:57:54.981Z,9.40
2023-01-11T13:04:46.388Z,9.30
2023-01-11T13:07:23.265Z,9.30
2023-01-11T13:10:16.695Z,9.20
2023-01-11T13:12:53.479Z,9.20
2023-01-11T13:15:24.517Z,9.20
2023-01-11T13:17:55.295Z,9.20
2023-01-11T13:24:58.799Z,9.00
2023-01-11T13:27:29.221Z,9.00
2023-01-11T13:34:29.371Z,8.90
2023-01-11T13:37:12.867Z,8.90
2023-01-11T13:44:42.657Z,8.80
2023-01-11T13:47:16.908Z,8.80
2023-01-11T13:50:09.794Z,8.80
2023-01-11T13:53:03.703Z,8.80
2023-01-11T13:56:06.557Z,8.80
2023-01-11T13:58:53.431Z,8.80
2023-01-11T14:01:40.594Z,8.70
2023-01-11T14:04:18.770Z,8.70
2023-01-11T14:07:00.226Z,8.70
2023-01-11T14:09:54.246Z,8.80
2023-01-11T14:12:41.158Z,8.70
2023-01-11T14:15:32.739Z,8.60
2023-01-11T14:18:13.804Z,8.60
2023-01-11T14:20:59.454Z,8.60
2023-01-11T14:23:37.946Z,8.60
2023-01-11T14:26:11.683Z,8.60
2023-01-11T14:28:49.890Z,8.60
2023-01-11T14:31:36.464Z,8.60
2023-01-11T14:34:20.635Z,8.60
2023-01-11T14:36:48.253Z,8.60
2023-01-11T14:39:55.517Z,8.60
2023-01-11T14:42:36.272Z,8.60
2023-01-11T14:45:31.846Z,8.60
2023-01-11T14:48:29.173Z,8.60
2023-01-11T14:51:16.077Z,8.60
2023-01-11T14:53:53.607Z,8.60
2023-01-11T14:56:43.911Z,8.60
2023-01-11T14:59:24.413Z,8.60
2023-01-11T15:02:05.466Z,8.60
2023-01-11T15:04:34.715Z,8.60
2023-01-11T15:07:24.961Z,8.60
2023-01-11T15:09:54.205Z,8.60
2023-01-11T15:12:38.610Z,8.60
2023-01-11T15:15:17.392Z,8.60
2023-01-11T15:18:04.374Z,8.60
2023-01-11T15:20:33.874Z,8.60
2023-01-11T15:23:04.949Z,8.60
2023-01-11T15:25:34.995Z,8.60
2023-01-11T15:28:24.950Z,8.60
2023-01-11T15:30:52.765Z,8.60
2023-01-11T15:33:21.199Z,8.60
2023-01-11T15:35:58.100Z,8.60
2023-01-11T15:38:30.614Z,8.60
2023-01-11T15:41:17.937Z,8.60
2023-01-11T15:44:06.912Z,8.60
2023-01-11T15:46:55.799Z,8.60
2023-01-11T15:50:01.597Z,8.60
2023-01-11T15:52:51.190Z,8.60
2023-01-11T15:55:48.562Z,8.60
2023-01-11T15:58:38.355Z,8.60
2023-01-11T16:01:29.100Z,8.60
2023-01-11T16:04:15.536Z,8.60
2023-01-11T16:06:43.584Z,8.60
2023-01-11T16:14:06.122Z,8.60
2023-01-11T16:16:40.572Z,8.60
2023-01-11T16:19:18.609Z,8.50
2023-01-11T16:21:51.613Z,8.60
2023-01-11T16:24:24.098Z,8.60
2023-01-11T16:26:59.462Z,8.60
2023-01-11T16:29:35.037Z,8.60
2023-01-11T16:32:05.370Z,8.60
2023-01-11T16:34:46.362Z,8.60
2023-01-11T16:37:28.906Z,8.70
2023-01-11T16:40:15.196Z,8.70
2023-01-11T16:42:49.164Z,8.70
2023-01-11T16:45:22.825Z,8.80
2023-01-11T16:48:09.753Z,8.80
2023-01-11T16:50:38.081Z,8.80
2023-01-11T16:53:14.660Z,8.80
2023-01-11T16:55:52.843Z,8.80
2023-01-11T16:58:29.818Z,8.90
2023-01-11T17:01:03.490Z,8.90
2023-01-11T17:03:34.052Z,8.90
2023-01-11T17:06:03.903Z,8.90
2023-01-11T17:08:53.335Z,8.90
2023-01-11T17:11:35.615Z,8.90
2023-01-11T17:14:22.153Z,8.80
2023-01-11T17:16:55.274Z,8.80
2023-01-11T17:19:31.426Z,8.60
2023-01-11T17:22:19.282Z,8.60
2023-01-11T17:25:00.327Z,8.50
2023-01-11T17:27:41.137Z,8.30
2023-01-11T17:30:20.213Z,8.30
2023-01-11T17:32:51.121Z,8.10
2023-01-11T17:35:24.172Z,8.10
2023-01-11T17:37:56.529Z,8.00
2023-01-11T17:40:30.459Z,8.00
2023-01-11T17:43:23.932Z,7.90
2023-01-11T17:45:59.924Z,7.80
2023-01-11T17:48:30.840Z,7.80
2023-01-11T17:51:05.014Z,7.80
2023-01-11T17:53:36.964Z,7.70
2023-01-11T17:56:10.485Z,7.60
2023-01-11T17:58:39.256Z,7.60
2023-01-11T18:01:20.587Z,7.60
2023-01-11T18:03:54.972Z,7.50
2023-01-11T18:06:36.461Z,7.50
2023-01-11T18:09:07.686Z,7.50
2023-01-11T18:11:39.236Z,7.50
2023-01-11T18:14:17.855Z,7.50
2023-01-11T18:17:04.585Z,7.60
2023-01-11T18:19:42.232Z,7.50
2023-01-11T18:22:32.880Z,7.50
2023-01-11T18:25:04.965Z,7.50
2023-01-11T18:27:35.013Z,7.50
2023-01-11T18:30:06.908Z,7.50
2023-01-11T18:32:41.757Z,7.50
2023-01-11T18:35:20.471Z,7.50
2023-01-11T18:37:48.813Z,7.50
2023-01-11T18:40:19.153Z,7.50
2023-01-11T18:42:50.180Z,7.50
2023-01-11T18:45:19.207Z,7.50
2023-01-11T18:47:47.060Z,7.50
2023-01-11T18:50:17.508Z,7.50
2023-01-11T18:52:47.016Z,7.50
2023-01-11T18:55:16.309Z,7.50
2023-01-11T18:57:44.327Z,7.50
2023-01-11T19:00:17.362Z,7.40
2023-01-11T19:02:47.140Z,7.40
2023-01-11T19:05:19.066Z,7.40
2023-01-11T19:07:48.199Z,7.40
2023-01-11T19:10:22.708Z,7.40
2023-01-11T19:12:51.269Z,7.40
2023-01-11T19:15:20.328Z,7.40
2023-01-11T19:17:49.473Z,7.40
2023-01-11T19:20:18.899Z,7.40
2023-01-11T19:25:58.553Z,7.30
2023-01-11T19:28:49.838Z,7.40
2023-01-11T19:31:31.249Z,7.40
2023-01-11T19:34:02.722Z,7.40
2023-01-11T19:36:33.878Z,7.40
2023-01-11T19:39:02.589Z,7.40
2023-01-11T19:41:52.292Z,7.30
2023-01-11T19:44:24.124Z,7.30
2023-01-11T19:47:00.291Z,7.30
2023-01-11T19:49:39.703Z,7.30
2023-01-11T19:52:14.120Z,7.30
2023-01-11T19:54:46.294Z,7.20
2023-01-11T19:57:23.244Z,7.30
2023-01-11T19:59:52.575Z,7.20
2023-01-11T20:02:25.177Z,7.30
2023-01-11T20:04:54.089Z,7.20
2023-01-11T20:07:22.962Z,7.20
2023-01-11T20:09:51.427Z,7.20
2023-01-11T20:12:21.135Z,7.20
2023-01-11T20:14:50.747Z,7.20
2023-01-11T20:17:21.828Z,7.20
2023-01-11T20:19:54.900Z,7.20
2023-01-11T20:22:26.929Z,7.20
2023-01-11T20:24:56.685Z,7.30
2023-01-11T20:27:25.370Z,7.20
2023-01-11T20:29:54.088Z,7.20
2023-01-11T20:32:40.185Z,7.20
2023-01-11T20:35:12.426Z,7.30
2023-01-11T20:37:41.533Z,7.40
2023-01-11T20:40:14.133Z,7.30
2023-01-11T20:42:42.524Z,7.40
2023-01-11T20:45:13.010Z,7.40
2023-01-11T20:47:41.445Z,7.40
2023-01-11T20:50:11.585Z,7.40
2023-01-11T20:52:40.902Z,7.40
2023-01-11T20:55:14.132Z,7.40
2023-01-11T20:57:46.518Z,7.40
2023-01-11T21:00:15.655Z,7.40
2023-01-11T21:02:45.169Z,7.40
2023-01-11T21:05:14.000Z,7.40
2023-01-11T21:07:41.774Z,7.40
2023-01-11T21:10:10.281Z,7.40
2023-01-11T21:12:40.159Z,7.40
2023-01-11T21:15:10.937Z,7.40
2023-01-11T21:17:39.717Z,7.30
2023-01-11T21:20:09.226Z,7.20
2023-01-11T21:22:38.310Z,7.20
2023-01-11T21:25:07.284Z,7.20
2023-01-11T21:27:35.840Z,7.20
2023-01-11T21:30:07.099Z,7.20
2023-01-11T21:32:35.925Z,7.20
2023-01-11T21:35:04.711Z,7.20
2023-01-11T21:37:33.678Z,7.30
2023-01-11T21:40:02.980Z,7.30
2023-01-11T21:42:30.943Z,7.30
2023-01-11T21:44:59.560Z,7.30
2023-01-11T21:47:28.092Z,7.30
2023-01-11T21:49:56.773Z,7.30
2023-01-11T21:52:28.371Z,7.30
2023-01-11T21:54:56.744Z,7.40
2023-01-11T21:57:24.599Z,7.40
2023-01-11T21:59:52.982Z,7.40
2023-01-11T22:02:20.727Z,7.40
2023-01-11T22:04:48.932Z,7.40
2023-01-11T22:07:16.992Z,7.40
2023-01-11T22:10:03.516Z,7.40
2023-01-11T22:12:32.969Z,7.40
2023-01-11T22:15:04.375Z,7.50
2023-01-11T22:17:33.201Z,7.40
2023-01-11T22:20:01.855Z,7.40
2023-01-11T22:22:30.356Z,7.40
2023-01-11T22:24:58.895Z,7.40
2023-01-11T22:27:26.715Z,7.30
2023-01-11T22:29:55.182Z,7.30
2023-01-11T22:32:23.894Z,7.30
2023-01-11T22:34:53.457Z,7.30
2023-01-11T22:37:22.049Z,7.30
2023-01-11T22:39:50.211Z,7.40
2023-01-11T22:42:20.065Z,7.40
2023-01-11T22:44:48.865Z,7.40
2023-01-11T22:47:16.900Z,7.40
2023-01-11T22:49:45.008Z,7.50
2023-01-11T22:52:12.912Z,7.50
2023-01-11T22:54:41.697Z,7.50
2023-01-11T22:57:10.075Z,7.50
2023-01-11T22:59:39.169Z,7.50
2023-01-11T23:02:06.900Z,7.50
2023-01-11T23:04:36.092Z,7.40
2023-01-11T23:07:04.921Z,7.40
2023-01-11T23:09:33.762Z,7.40
2023-01-11T23:12:19.997Z,7.40
2023-01-11T23:14:49.393Z,7.30
2023-01-11T23:17:19.242Z,7.20
2023-01-11T23:19:50.197Z,7.20
2023-01-11T23:22:18.057Z,7.20
2023-01-11T23:24:46.343Z,7.20
2023-01-11T23:27:14.521Z,7.20
2023-01-11T23:29:43.068Z,7.20
2023-01-11T23:32:11.867Z,7.20
2023-01-11T23:34:40.105Z,7.20
2023-01-11T23:37:08.568Z,7.10
2023-01-11T23:39:36.675Z,7.10
2023-01-11T23:42:22.722Z,7.10
2023-01-11T23:44:51.148Z,7.10
2023-01-11T23:47:22.055Z,7.10
2023-01-11T23:49:53.321Z,7.10
2023-01-11T23:52:26.999Z,7.20
2023-01-11T23:54:55.904Z,7.20
2023-01-11T23:57:25.455Z,7.20
2023-01-11T23:59:53.666Z,7.20
